Last 30 Days

Smith Lane (Kelseyville-South)

Daily Data | America/Los_Angeles
as of 8/30/26 11:24 PM PDT
Date Daily Max Temp (°F) Time of Max Temp Daily Min Temp (°F) Time of Min Temp Daily Rain (In) Month Precip (In) Season Precip (In) Wind Spd (mph) Daily Max Wind (mph) Time of Max Wind Max Wind Dir (°) Dew Pt (°F) Daily Leaf Wet (Hrs) Hrs 70-85F (hrs) Hrs > 95F (hrs) Powdery Mildew Stress (pts) GDDs (DL) GDDs (Mx/Mn) Seas GDDs (DL) Seas GDDs (Smpl) Hrs <= 32F (hrs) Hrs <= 28F (hrs) Chilling <=45F (hrs) Chill Hrs 32-45F (hrs) Utah Chilling (Units) Degree Hrs (hrs) MinBV Day (V)
8/29/26 88.2 1606 39.0 0642 0.00 0.00 0.00 2.2 16.0 1405 W | 276 42.8 24.0 3.49 0.00 10 16.3 13.6 2,590 2,432 0.0 0.0 6.6 6.6 -4.5 179.1 12.5
8/28/26 85.9 1505 44.3 0059 0.00 0.00 0.00 2.3 12.1 1535 W | 263 37.5 24.0 9.99 0.00 20 17.2 15.1 2,574 2,418 0.0 0.0 0.3 0.3 -10.5 165.8 12.6
8/27/26 96.3 1545 50.6 0707 0.00 0.00 0.00 2.7 16.0 1634 WNW | 292 43.3 24.0 2.76 1.82 0 23.7 23.4 2,557 2,403 0.0 0.0 0.0 0.0 -15.0 286.6 12.5
8/26/26 97.4 1531 41.8 0641 0.00 0.00 0.00 1.8 13.3 1715 WSW | 248 50.6 24.0 2.65 1.48 0 20.7 19.6 2,533 2,380 0.0 0.0 2.9 2.9 -8.0 252.4 12.5
8/25/26 94.0 1442 47.7 0638 0.00 0.00 0.00 2.5 13.3 1545 S | 191 43.6 24.0 3.01 0.00 0 20.6 20.9 2,512 2,360 0.0 0.0 0.0 0.0 -10.5 250.2 12.6
8/24/26 95.5 1506 47.5 0626 0.00 0.00 0.00 2.4 13.8 1518 SW | 235 46.1 24.0 2.21 0.25 0 21.2 21.5 2,492 2,339 0.0 0.0 0.0 0.0 -11.0 263.7 12.5
8/23/26 98.1 1649 46.1 0649 0.00 0.00 0.00 1.9 12.1 1718 SSW | 202 44.7 24.0 2.97 3.20 0 22.3 22.1 2,470 2,318 0.0 0.0 0.0 0.0 -10.5 285.6 12.6
8/22/26 92.7 1602 44.4 0653 0.00 0.00 0.00 2.3 15.5 1443 W | 266 43.4 24.0 2.41 0.00 0 19.8 18.5 2,448 2,296 0.0 0.0 1.0 1.0 -7.5 237.7 12.6
8/21/26 92.1 1442 54.1 0058 0.00 0.00 0.00 2.6 13.8 1431 SW | 231 46.3 24.0 3.80 0.00 0 22.2 23.1 2,428 2,277 0.0 0.0 0.0 0.0 -15.0 239.2 12.6
8/20/26 96.3 1419 51.2 0629 0.00 0.00 0.00 2.5 14.4 1432 SSW | 212 49.7 24.0 2.94 2.22 0 23.8 23.7 2,406 2,254 0.0 0.0 0.0 0.0 -13.5 292.7 12.5
8/19/26 99.1 1435 53.8 0644 0.00 0.00 0.00 2.3 14.9 1539 SSW | 207 49.4 24.0 2.16 5.02 0 25.9 26.5 2,382 2,230 0.0 0.0 0.0 0.0 -16.0 320.3 12.5
8/18/26 98.9 1506 53.8 0622 0.00 0.00 0.00 1.9 16.6 1550 NW | 322 49.8 24.0 2.14 4.25 0 25.2 26.4 2,357 2,204 0.0 0.0 0.0 0.0 -16.5 311.8 12.5
8/17/26 94.6 1537 56.8 0416 0.00 0.00 0.00 2.0 20.5 1350 W | 266 48.0 24.0 2.63 0.00 10 24.0 25.7 2,331 2,177 0.0 0.0 0.0 0.0 -17.0 262.9 12.6
8/16/26 92.8 1517 47.7 0630 0.00 0.00 0.00 2.3 13.3 1658 SSW | 199 49.5 24.0 3.09 0.00 20 21.0 20.2 2,307 2,152 0.0 0.0 0.0 0.0 -13.0 240.8 12.6
8/15/26 86.4 1336 47.5 0628 0.00 0.00 0.00 2.1 13.8 1349 WSW | 248 52.2 24.0 4.15 0.00 30 17.7 17.0 2,286 2,131 0.0 0.0 0.0 0.0 -10.0 181.3 12.6
8/14/26 83.6 1532 49.6 0639 0.00 0.00 0.00 2.6 13.3 1222 E | 100 51.9 24.0 10.27 0.00 40 16.7 16.6 2,269 2,114 0.0 0.0 0.0 0.0 -11.5 146.8 12.6
8/13/26 84.5 1210 52.9 0631 0.00 0.00 0.00 3.5 16.6 1434 SW | 233 53.3 24.0 11.01 0.00 20 18.7 18.7 2,252 2,098 0.0 0.0 0.0 0.0 -14.0 157.8 12.5
8/12/26 93.4 1522 51.0 0636 0.00 0.00 0.00 2.5 14.4 1536 SSW | 200 53.4 24.0 2.75 0.00 0 23.1 22.2 2,233 2,079 0.0 0.0 0.0 0.0 -15.0 268.0 12.6
8/11/26 95.9 1327 52.1 0618 0.00 0.00 0.00 2.5 16.6 1511 S | 175 52.2 24.0 2.62 0.58 0 24.6 24.0 2,210 2,057 0.0 0.0 0.0 0.0 -15.5 294.6 12.5
8/10/26 100.4 1325 50.6 0632 0.00 0.00 0.00 2.8 14.4 1525 SSE | 154 53.1 24.0 2.94 3.38 0 26.0 25.5 2,186 2,033 0.0 0.0 0.0 0.0 -14.5 342.7 12.6
8/9/26 106.2 1457 51.5 0615 0.00 0.00 0.00 2.4 14.4 1516 SW | 236 44.5 24.0 1.74 7.10 0 28.4 28.9 2,160 2,007 0.0 0.0 0.0 0.0 -14.0 393.6 12.6
8/8/26 107.4 1516 54.7 0626 0.00 0.00 0.00 2.4 14.4 1709 SW | 214 46.9 24.0 2.27 7.71 0 30.9 31.1 2,131 1,979 0.0 0.0 0.0 0.0 -18.0 424.8 12.6
8/7/26 103.8 1704 53.0 0615 0.00 0.00 0.00 2.1 12.7 1539 S | 184 42.7 24.0 2.60 7.04 0 28.2 28.4 2,100 1,947 0.0 0.0 0.0 0.0 -16.5 377.0 12.7
8/6/26 102.4 1503 52.5 0609 0.00 0.00 0.00 2.4 15.5 1632 S | 172 51.3 24.0 2.29 5.65 0 26.6 27.4 2,072 1,919 0.0 0.0 0.0 0.0 -16.0 341.6 12.6
8/5/26 101.3 1443 53.9 0638 0.00 0.00 0.00 2.5 16.0 1440 W | 273 46.6 24.0 2.09 5.15 0 27.4 27.6 2,046 1,892 0.0 0.0 0.0 0.0 -18.0 344.5 12.6
8/4/26 103.4 1506 51.3 0619 0.00 0.00 0.00 2.2 13.8 1605 SSW | 208 53.6 24.0 2.83 6.52 0 28.5 27.4 2,018 1,864 0.0 0.0 0.0 0.0 -17.0 381.7 12.6
8/3/26 105.8 1631 52.8 0617 0.00 0.00 0.00 1.9 17.2 1247 NE | 40 50.2 24.0 2.11 6.95 0 28.7 29.3 1,990 1,837 0.0 0.0 0.0 0.0 -16.0 391.3 12.5
8/2/26 101.6 1706 51.4 0630 0.00 0.00 0.00 2.4 14.4 1316 WNW | 283 46.8 24.0 2.36 6.16 0 26.2 26.5 1,961 1,807 0.0 0.0 0.0 0.0 -13.5 349.6 12.5
8/1/26 102.6 1457 50.7 0630 0.00 0.00 0.00 2.5 15.5 1557 SW | 220 46.6 24.0 2.21 5.85 0 26.1 26.6 1,935 1,781 0.0 0.0 0.0 0.0 -14.0 349.6 12.6
7/31/26 101.3 1626 47.0 0625 0.00 0.00 0.00 2.2 14.4 1756 SW | 236 47.6 24.0 2.35 4.48 0 24.3 24.1 1,909 1,754 0.0 0.0 0.0 0.0 -11.5 324.3 12.5
Max 107.4 - 56.8 - 0.00 0.00 0.00 3.5 20.5 - - 53.6 24.0 11.01 7.71 - 30.9 31.1 - - 0.0 0.0 6.6 6.6 -4.5 424.8 12.7
Avg - - - - - - - 2.4 - - - 47.9 - 3.43 2.83 - 23.5 23.4 - - 0.0 0.0 0.4 0.4 -13.4 - -
Min 83.6 - 39.0 - 0.00 0.00 0.00 1.8 12.1 - - 37.5 24.0 1.74 0.00 - 16.3 13.6 - - 0.0 0.0 0.0 0.0 -18.0 146.8 12.5
Total - - - - - - - - - - - - - 102.84 84.83 - 705.7 701.7 - - 0.0 0.0 10.8 10.8 -403.5 - -